createdAt,value
2022-09-04T06:40:59.056Z,23
2022-09-04T06:46:42.863Z,23
2022-09-04T06:52:22.408Z,23.1
2022-09-04T06:58:09.313Z,23.1
2022-09-04T07:03:47.344Z,23.1
2022-09-04T07:09:23.549Z,23.1
2022-09-04T07:14:45.316Z,23.1
2022-09-04T07:20:24.125Z,23.1
2022-09-04T07:26:00.813Z,23.1
2022-09-04T07:31:39.915Z,23.1
2022-09-04T07:37:21.458Z,23.1
2022-09-04T07:43:03.813Z,23.2
2022-09-04T07:48:41.831Z,23.2
2022-09-04T07:54:35.209Z,23.1
2022-09-04T08:00:11.917Z,23.1
2022-09-04T08:05:53.138Z,23.1
2022-09-04T08:11:36.025Z,23.1
2022-09-04T08:17:15.586Z,23.1
2022-09-04T08:22:52.535Z,23.1
2022-09-04T08:28:17.736Z,23.1
2022-09-04T08:34:01.440Z,23.1
2022-09-04T08:39:40.583Z,23.1
2022-09-04T08:45:02.777Z,23.1
2022-09-04T08:50:44.766Z,23.1
2022-09-04T08:56:09.080Z,23.1
2022-09-04T09:01:34.669Z,23.1
2022-09-04T09:06:41.563Z,23.1
2022-09-04T09:12:24.227Z,23.1
2022-09-04T09:17:51.503Z,23.2
2022-09-04T09:23:17.356Z,23.2
2022-09-04T09:28:54.930Z,23.2
2022-09-04T09:34:34.675Z,23.2
2022-09-04T09:40:01.169Z,23.2
2022-09-04T09:45:41.579Z,23.2
2022-09-04T09:51:29.347Z,23.2
2022-09-04T09:57:10.621Z,23.2
2022-09-04T10:02:55.786Z,23.3
2022-09-04T10:08:38.220Z,23.3
2022-09-04T10:14:14.228Z,23.3
2022-09-04T10:19:55.141Z,23.3
2022-09-04T10:25:32.423Z,23.3
2022-09-04T10:31:20.194Z,23.3
2022-09-04T10:37:04.513Z,23.3
2022-09-04T10:42:45.083Z,23.3
2022-09-04T11:11:32.597Z,23.3
2022-09-04T11:17:13.872Z,23.4
2022-09-04T11:22:36.392Z,23.4
2022-09-04T11:28:17.417Z,23.4
2022-09-04T11:33:56.024Z,23.4
2022-09-04T11:39:37.588Z,23.4
2022-09-04T11:45:16.287Z,23.4
2022-09-04T11:50:53.081Z,23.4
2022-09-04T11:56:30.712Z,23.5
2022-09-04T12:02:08.601Z,23.4
2022-09-04T12:07:59.233Z,23.5
2022-09-04T12:13:48.721Z,23.5
2022-09-04T12:19:33.465Z,23.4
2022-09-04T12:25:12.358Z,23.4
2022-09-04T12:31:00.709Z,23.5
2022-09-04T12:36:44.506Z,23.5
2022-09-04T12:42:23.080Z,23.6
2022-09-04T12:48:05.132Z,23.5
2022-09-04T12:53:43.397Z,23.6
2022-09-04T12:59:32.756Z,23.6
2022-09-04T13:05:00.394Z,23.6
2022-09-04T13:10:59.948Z,23.6
2022-09-04T13:16:39.807Z,23.6
2022-09-04T13:22:17.747Z,23.6
2022-09-04T13:27:47.582Z,23.6
2022-09-04T13:33:28.145Z,23.6
2022-09-04T13:39:12.173Z,23.6
2022-09-04T13:44:49.725Z,23.6
2022-09-04T13:50:41.502Z,23.6
2022-09-04T13:56:22.812Z,23.6
2022-09-04T14:02:08.451Z,23.6
2022-09-04T14:07:47.164Z,23.6
2022-09-04T14:13:35.012Z,23.6
2022-09-04T14:19:25.292Z,23.6
2022-09-04T14:25:13.558Z,23.7
2022-09-04T14:30:56.000Z,23.7
2022-09-04T14:36:55.611Z,23.7
2022-09-04T14:42:32.804Z,23.7
2022-09-04T14:48:14.431Z,23.8
2022-09-04T14:54:00.819Z,23.7
2022-09-04T14:59:40.299Z,23.8
2022-09-04T15:05:23.172Z,23.8
2022-09-04T15:11:31.032Z,23.8
2022-09-04T15:17:23.402Z,23.7
2022-09-04T18:56:06.567Z,23.8
2022-09-04T19:02:00.738Z,23.8
2022-09-04T19:07:58.201Z,23.8
2022-09-04T19:14:00.696Z,23.8
2022-09-04T19:20:08.581Z,23.9
2022-09-04T19:26:11.206Z,23.8
2022-09-04T19:32:19.588Z,23.8
2022-09-04T19:46:49.606Z,23.8
2022-09-04T19:58:21.100Z,23.8
2022-09-04T20:04:57.673Z,23.8
2022-09-04T20:10:48.819Z,23.8
2022-09-04T20:16:47.785Z,23.8
2022-09-04T20:22:43.651Z,23.8
2022-09-04T20:28:53.191Z,23.8
2022-09-04T20:34:44.359Z,23.7
2022-09-04T20:40:27.652Z,23.7
2022-09-04T20:54:01.108Z,23.7
2022-09-04T21:06:23.680Z,23.7
2022-09-04T21:11:39.018Z,23.6
2022-09-04T21:17:51.868Z,23.7
2022-09-04T21:24:01.987Z,23.6
2022-09-04T21:30:00.661Z,23.6
2022-09-04T21:36:25.860Z,23.6
2022-09-04T21:42:50.628Z,23.6
2022-09-04T21:48:57.625Z,23.6
2022-09-04T22:03:34.048Z,23.6
2022-09-04T22:16:19.046Z,23.6
2022-09-04T22:22:06.719Z,23.6
2022-09-04T22:28:24.913Z,23.6
2022-09-04T22:35:06.049Z,23.6
2022-09-04T22:40:42.059Z,23.6
2022-09-04T22:46:49.808Z,23.6
2022-09-04T22:53:02.618Z,23.6
2022-09-04T22:59:42.629Z,23.6
2022-09-04T23:06:24.910Z,23.6
2022-09-04T23:29:08.848Z,23.6
2022-09-04T23:35:30.075Z,23.5
2022-09-04T23:41:20.963Z,23.5
2022-09-04T23:48:04.306Z,23.5
2022-09-04T23:53:38.577Z,23.6
2022-09-04T23:59:58.702Z,23.6
